Terminal Aerodrome Forecast
Issued by NWS Quad Cities IA IL

Home | Current Version | Previous Version | Text Only | Print | Product List | Glossary On
Versions: 1 2 3 4 5 6 7 8 9 10 11 12 13 14 15 16 17 18 19 20 21 22 23 24 25
126
FTUS43 KDVN 022347
TAFMLI
TAF
KMLI 022347Z 0300/0324 07012KT 3SM BR OVC005
     FM030200 10007KT 1SM BR OVC003
      TEMPO 0304/0308 1/2SM FG OVC001
     FM030800 22010KT 1 1/2SM -SN BR OVC003
     FM031300 31014KT 2SM -SN BR OVC006
     FM031600 30016G26KT P6SM OVC012=

USA.gov is the U.S. government's official web portal to all federal, state and local government web resources and services.